sensor_id;sensor_type;location;lat;lon;timestamp;temperature;humidity
22623;DHT22;11478;51.094;7.030;2023-04-28T00:02:02;9.90;99.90
22623;DHT22;11478;51.094;7.030;2023-04-28T00:04:28;9.90;99.90
22623;DHT22;11478;51.094;7.030;2023-04-28T00:06:54;9.90;99.90
22623;DHT22;11478;51.094;7.030;2023-04-28T00:09:20;9.80;99.90
22623;DHT22;11478;51.094;7.030;2023-04-28T00:11:46;9.80;99.90
22623;DHT22;11478;51.094;7.030;2023-04-28T00:14:12;9.80;99.90
22623;DHT22;11478;51.094;7.030;2023-04-28T00:16:38;9.80;99.90
22623;DHT22;11478;51.094;7.030;2023-04-28T00:19:05;9.80;99.90
22623;DHT22;11478;51.094;7.030;2023-04-28T00:21:32;9.70;99.90
22623;DHT22;11478;51.094;7.030;2023-04-28T00:23:59;9.70;99.90
22623;DHT22;11478;51.094;7.030;2023-04-28T00:26:25;9.70;99.90
22623;DHT22;11478;51.094;7.030;2023-04-28T00:28:51;9.70;99.90
22623;DHT22;11478;51.094;7.030;2023-04-28T00:31:17;9.70;99.90
22623;DHT22;11478;51.094;7.030;2023-04-28T00:33:44;9.70;99.90
22623;DHT22;11478;51.094;7.030;2023-04-28T00:36:10;9.70;99.90
22623;DHT22;11478;51.094;7.030;2023-04-28T00:38:37;9.70;99.90
22623;DHT22;11478;51.094;7.030;2023-04-28T00:41:03;9.60;99.90
22623;DHT22;11478;51.094;7.030;2023-04-28T00:43:29;9.60;99.90
22623;DHT22;11478;51.094;7.030;2023-04-28T00:45:55;9.60;99.90
22623;DHT22;11478;51.094;7.030;2023-04-28T00:48:21;9.50;99.90
22623;DHT22;11478;51.094;7.030;2023-04-28T00:50:48;9.50;99.90
22623;DHT22;11478;51.094;7.030;2023-04-28T00:53:14;9.50;99.90
22623;DHT22;11478;51.094;7.030;2023-04-28T00:55:40;9.40;99.90
22623;DHT22;11478;51.094;7.030;2023-04-28T00:58:06;9.40;99.90
22623;DHT22;11478;51.094;7.030;2023-04-28T01:00:33;9.40;99.90
22623;DHT22;11478;51.094;7.030;2023-04-28T01:02:59;9.40;99.90
22623;DHT22;11478;51.094;7.030;2023-04-28T01:05:25;9.40;99.90
22623;DHT22;11478;51.094;7.030;2023-04-28T01:07:52;9.40;99.90
22623;DHT22;11478;51.094;7.030;2023-04-28T01:10:19;9.40;99.90
22623;DHT22;11478;51.094;7.030;2023-04-28T01:12:45;9.40;99.90
22623;DHT22;11478;51.094;7.030;2023-04-28T01:15:15;9.30;99.90
22623;DHT22;11478;51.094;7.030;2023-04-28T01:17:42;9.30;99.90
22623;DHT22;11478;51.094;7.030;2023-04-28T01:20:14;9.30;99.90
22623;DHT22;11478;51.094;7.030;2023-04-28T01:22:40;9.30;99.90
22623;DHT22;11478;51.094;7.030;2023-04-28T01:25:22;9.30;99.90
22623;DHT22;11478;51.094;7.030;2023-04-28T01:27:47;9.30;99.90
22623;DHT22;11478;51.094;7.030;2023-04-28T01:30:14;9.30;99.90
22623;DHT22;11478;51.094;7.030;2023-04-28T01:32:40;9.30;99.90
22623;DHT22;11478;51.094;7.030;2023-04-28T01:35:07;9.30;99.90
22623;DHT22;11478;51.094;7.030;2023-04-28T01:37:33;9.30;99.90
22623;DHT22;11478;51.094;7.030;2023-04-28T01:40:00;9.30;99.90
22623;DHT22;11478;51.094;7.030;2023-04-28T01:42:26;9.30;99.90
22623;DHT22;11478;51.094;7.030;2023-04-28T01:44:52;9.30;99.90
22623;DHT22;11478;51.094;7.030;2023-04-28T01:47:18;9.30;99.90
22623;DHT22;11478;51.094;7.030;2023-04-28T01:49:45;9.20;99.90
22623;DHT22;11478;51.094;7.030;2023-04-28T01:52:12;9.20;99.90
22623;DHT22;11478;51.094;7.030;2023-04-28T01:54:38;9.20;99.90
22623;DHT22;11478;51.094;7.030;2023-04-28T01:57:04;9.20;99.90
22623;DHT22;11478;51.094;7.030;2023-04-28T01:59:31;9.20;99.90
22623;DHT22;11478;51.094;7.030;2023-04-28T02:01:57;9.20;99.90
22623;DHT22;11478;51.094;7.030;2023-04-28T02:04:23;9.20;99.90
22623;DHT22;11478;51.094;7.030;2023-04-28T02:06:49;9.20;99.90
22623;DHT22;11478;51.094;7.030;2023-04-28T02:09:15;9.10;99.90
22623;DHT22;11478;51.094;7.030;2023-04-28T02:11:41;9.20;99.90
22623;DHT22;11478;51.094;7.030;2023-04-28T02:14:08;9.20;99.90
22623;DHT22;11478;51.094;7.030;2023-04-28T02:16:34;9.20;99.90
22623;DHT22;11478;51.094;7.030;2023-04-28T02:19:00;9.10;99.90
22623;DHT22;11478;51.094;7.030;2023-04-28T02:21:26;9.10;99.90
22623;DHT22;11478;51.094;7.030;2023-04-28T02:23:52;9.10;99.90
22623;DHT22;11478;51.094;7.030;2023-04-28T02:26:18;9.10;99.90
22623;DHT22;11478;51.094;7.030;2023-04-28T02:28:44;9.10;99.90
22623;DHT22;11478;51.094;7.030;2023-04-28T02:31:10;9.10;99.90
22623;DHT22;11478;51.094;7.030;2023-04-28T02:33:38;9.10;99.90
22623;DHT22;11478;51.094;7.030;2023-04-28T02:36:05;9.00;99.90
22623;DHT22;11478;51.094;7.030;2023-04-28T02:38:35;9.00;99.90
22623;DHT22;11478;51.094;7.030;2023-04-28T02:41:06;9.00;99.90
22623;DHT22;11478;51.094;7.030;2023-04-28T02:43:34;9.00;99.90
22623;DHT22;11478;51.094;7.030;2023-04-28T02:46:03;9.00;99.90
22623;DHT22;11478;51.094;7.030;2023-04-28T02:48:29;9.00;99.90
22623;DHT22;11478;51.094;7.030;2023-04-28T02:50:55;9.00;99.90
22623;DHT22;11478;51.094;7.030;2023-04-28T02:53:21;9.00;99.90
22623;DHT22;11478;51.094;7.030;2023-04-28T02:55:48;8.90;99.90
22623;DHT22;11478;51.094;7.030;2023-04-28T02:58:14;8.90;99.90
22623;DHT22;11478;51.094;7.030;2023-04-28T03:00:42;8.90;99.90
22623;DHT22;11478;51.094;7.030;2023-04-28T03:03:08;8.90;99.90
22623;DHT22;11478;51.094;7.030;2023-04-28T03:05:36;8.90;99.90
22623;DHT22;11478;51.094;7.030;2023-04-28T03:08:02;8.90;99.90
22623;DHT22;11478;51.094;7.030;2023-04-28T03:10:28;8.90;99.90
22623;DHT22;11478;51.094;7.030;2023-04-28T03:12:54;8.90;99.90
22623;DHT22;11478;51.094;7.030;2023-04-28T03:15:21;8.90;99.90
22623;DHT22;11478;51.094;7.030;2023-04-28T03:17:50;8.90;99.90
22623;DHT22;11478;51.094;7.030;2023-04-28T03:20:18;8.90;99.90
22623;DHT22;11478;51.094;7.030;2023-04-28T03:22:44;9.00;99.90
22623;DHT22;11478;51.094;7.030;2023-04-28T03:25:10;9.00;99.90
22623;DHT22;11478;51.094;7.030;2023-04-28T03:27:36;9.00;99.90
22623;DHT22;11478;51.094;7.030;2023-04-28T03:30:07;8.90;99.90
22623;DHT22;11478;51.094;7.030;2023-04-28T03:32:34;8.90;99.90
22623;DHT22;11478;51.094;7.030;2023-04-28T03:35:00;9.00;99.90
22623;DHT22;11478;51.094;7.030;2023-04-28T03:37:26;9.00;99.90
22623;DHT22;11478;51.094;7.030;2023-04-28T03:39:52;9.00;99.90
22623;DHT22;11478;51.094;7.030;2023-04-28T03:42:18;9.00;99.90
22623;DHT22;11478;51.094;7.030;2023-04-28T03:44:44;9.00;99.90
22623;DHT22;11478;51.094;7.030;2023-04-28T03:47:11;9.00;99.90
22623;DHT22;11478;51.094;7.030;2023-04-28T03:49:38;9.00;99.90
22623;DHT22;11478;51.094;7.030;2023-04-28T03:52:04;9.00;99.90
22623;DHT22;11478;51.094;7.030;2023-04-28T03:54:30;9.00;99.90
22623;DHT22;11478;51.094;7.030;2023-04-28T03:56:56;9.00;99.90
22623;DHT22;11478;51.094;7.030;2023-04-28T03:59:23;9.00;99.90
22623;DHT22;11478;51.094;7.030;2023-04-28T04:01:48;9.00;99.90
22623;DHT22;11478;51.094;7.030;2023-04-28T04:04:15;9.00;99.90
22623;DHT22;11478;51.094;7.030;2023-04-28T04:06:41;9.00;99.90
22623;DHT22;11478;51.094;7.030;2023-04-28T04:09:09;9.00;99.90
22623;DHT22;11478;51.094;7.030;2023-04-28T04:11:35;8.90;99.90
22623;DHT22;11478;51.094;7.030;2023-04-28T04:14:01;8.90;99.90
22623;DHT22;11478;51.094;7.030;2023-04-28T04:16:27;8.90;99.90
22623;DHT22;11478;51.094;7.030;2023-04-28T04:18:55;8.90;99.90
22623;DHT22;11478;51.094;7.030;2023-04-28T04:21:21;8.90;99.90
22623;DHT22;11478;51.094;7.030;2023-04-28T04:23:48;8.90;99.90
22623;DHT22;11478;51.094;7.030;2023-04-28T04:26:14;9.00;99.90
22623;DHT22;11478;51.094;7.030;2023-04-28T04:28:40;9.00;99.90
22623;DHT22;11478;51.094;7.030;2023-04-28T04:31:06;9.00;99.90
22623;DHT22;11478;51.094;7.030;2023-04-28T04:33:32;9.00;99.90
22623;DHT22;11478;51.094;7.030;2023-04-28T04:35:59;9.00;99.90
22623;DHT22;11478;51.094;7.030;2023-04-28T04:38:25;9.10;99.90
22623;DHT22;11478;51.094;7.030;2023-04-28T04:40:51;9.10;99.90
22623;DHT22;11478;51.094;7.030;2023-04-28T04:43:20;9.10;99.90
22623;DHT22;11478;51.094;7.030;2023-04-28T04:45:46;9.20;99.90
22623;DHT22;11478;51.094;7.030;2023-04-28T04:48:13;9.20;99.90
22623;DHT22;11478;51.094;7.030;2023-04-28T04:50:40;9.20;99.90
22623;DHT22;11478;51.094;7.030;2023-04-28T04:53:07;9.20;99.90
22623;DHT22;11478;51.094;7.030;2023-04-28T04:55:34;9.20;99.90
22623;DHT22;11478;51.094;7.030;2023-04-28T04:58:00;9.20;99.90
22623;DHT22;11478;51.094;7.030;2023-04-28T05:00:27;9.20;99.90
22623;DHT22;11478;51.094;7.030;2023-04-28T05:02:53;9.20;99.90
22623;DHT22;11478;51.094;7.030;2023-04-28T05:05:19;9.20;99.90
22623;DHT22;11478;51.094;7.030;2023-04-28T05:07:45;9.30;99.90
22623;DHT22;11478;51.094;7.030;2023-04-28T05:10:12;9.30;99.90
22623;DHT22;11478;51.094;7.030;2023-04-28T05:12:38;9.30;99.90
22623;DHT22;11478;51.094;7.030;2023-04-28T05:15:05;9.40;99.90
22623;DHT22;11478;51.094;7.030;2023-04-28T05:17:32;9.40;99.90
22623;DHT22;11478;51.094;7.030;2023-04-28T05:19:59;9.40;99.90
22623;DHT22;11478;51.094;7.030;2023-04-28T05:22:25;9.50;99.90
22623;DHT22;11478;51.094;7.030;2023-04-28T05:24:51;9.50;99.90
22623;DHT22;11478;51.094;7.030;2023-04-28T05:27:18;9.50;99.90
22623;DHT22;11478;51.094;7.030;2023-04-28T05:29:46;9.50;99.90
22623;DHT22;11478;51.094;7.030;2023-04-28T05:32:12;9.60;99.90
22623;DHT22;11478;51.094;7.030;2023-04-28T05:34:39;9.60;99.90
22623;DHT22;11478;51.094;7.030;2023-04-28T05:37:05;9.60;99.90
22623;DHT22;11478;51.094;7.030;2023-04-28T05:39:31;9.70;99.90
22623;DHT22;11478;51.094;7.030;2023-04-28T05:41:57;9.70;99.90
22623;DHT22;11478;51.094;7.030;2023-04-28T05:44:25;9.70;99.90
22623;DHT22;11478;51.094;7.030;2023-04-28T05:46:51;9.70;99.90
22623;DHT22;11478;51.094;7.030;2023-04-28T05:49:17;9.70;99.90
22623;DHT22;11478;51.094;7.030;2023-04-28T05:51:46;9.70;99.90
22623;DHT22;11478;51.094;7.030;2023-04-28T05:54:12;9.70;99.90
22623;DHT22;11478;51.094;7.030;2023-04-28T05:56:39;9.70;99.90
22623;DHT22;11478;51.094;7.030;2023-04-28T05:59:05;9.80;99.90
22623;DHT22;11478;51.094;7.030;2023-04-28T06:01:53;9.80;99.90
22623;DHT22;11478;51.094;7.030;2023-04-28T06:04:42;9.80;99.90
22623;DHT22;11478;51.094;7.030;2023-04-28T06:07:34;9.90;99.90
22623;DHT22;11478;51.094;7.030;2023-04-28T06:10:21;9.90;99.90
22623;DHT22;11478;51.094;7.030;2023-04-28T06:13:08;10.00;99.90
22623;DHT22;11478;51.094;7.030;2023-04-28T06:15:53;10.10;99.90
22623;DHT22;11478;51.094;7.030;2023-04-28T06:18:45;10.10;99.90
22623;DHT22;11478;51.094;7.030;2023-04-28T06:35:37;10.50;99.90
22623;DHT22;11478;51.094;7.030;2023-04-28T06:38:05;10.60;99.90
22623;DHT22;11478;51.094;7.030;2023-04-28T06:40:31;10.60;99.90
22623;DHT22;11478;51.094;7.030;2023-04-28T06:42:59;10.60;99.90
22623;DHT22;11478;51.094;7.030;2023-04-28T06:45:25;10.70;99.90
22623;DHT22;11478;51.094;7.030;2023-04-28T06:47:52;10.80;99.90
22623;DHT22;11478;51.094;7.030;2023-04-28T06:50:21;10.90;99.90
22623;DHT22;11478;51.094;7.030;2023-04-28T06:52:47;10.90;99.90
22623;DHT22;11478;51.094;7.030;2023-04-28T06:55:15;11.00;99.90
22623;DHT22;11478;51.094;7.030;2023-04-28T06:57:42;11.00;99.90
22623;DHT22;11478;51.094;7.030;2023-04-28T07:00:09;11.10;99.90
22623;DHT22;11478;51.094;7.030;2023-04-28T07:02:35;11.10;99.90
22623;DHT22;11478;51.094;7.030;2023-04-28T07:05:02;11.20;99.90
22623;DHT22;11478;51.094;7.030;2023-04-28T07:07:29;11.20;99.90
22623;DHT22;11478;51.094;7.030;2023-04-28T07:09:55;11.30;99.90
22623;DHT22;11478;51.094;7.030;2023-04-28T07:12:21;11.30;99.90
22623;DHT22;11478;51.094;7.030;2023-04-28T07:14:48;11.30;99.90
22623;DHT22;11478;51.094;7.030;2023-04-28T07:17:15;11.40;99.90
22623;DHT22;11478;51.094;7.030;2023-04-28T07:19:41;11.50;99.90
22623;DHT22;11478;51.094;7.030;2023-04-28T07:22:07;11.50;99.90
22623;DHT22;11478;51.094;7.030;2023-04-28T07:24:37;11.50;99.90
22623;DHT22;11478;51.094;7.030;2023-04-28T07:27:09;11.50;99.90
22623;DHT22;11478;51.094;7.030;2023-04-28T07:29:35;11.50;99.90
22623;DHT22;11478;51.094;7.030;2023-04-28T07:32:01;11.50;99.90
22623;DHT22;11478;51.094;7.030;2023-04-28T07:34:35;11.60;99.90
22623;DHT22;11478;51.094;7.030;2023-04-28T07:37:02;11.60;99.90
22623;DHT22;11478;51.094;7.030;2023-04-28T07:39:29;11.70;99.90
22623;DHT22;11478;51.094;7.030;2023-04-28T07:42:04;11.70;99.90
22623;DHT22;11478;51.094;7.030;2023-04-28T07:44:30;11.80;99.90
22623;DHT22;11478;51.094;7.030;2023-04-28T07:46:56;11.80;99.90
22623;DHT22;11478;51.094;7.030;2023-04-28T07:49:23;11.80;99.90
22623;DHT22;11478;51.094;7.030;2023-04-28T07:51:49;11.90;99.90
22623;DHT22;11478;51.094;7.030;2023-04-28T07:54:18;11.90;99.90
22623;DHT22;11478;51.094;7.030;2023-04-28T07:56:44;12.00;99.90
22623;DHT22;11478;51.094;7.030;2023-04-28T07:59:10;12.00;99.90
22623;DHT22;11478;51.094;7.030;2023-04-28T08:01:45;12.00;99.90
22623;DHT22;11478;51.094;7.030;2023-04-28T08:04:11;12.00;99.90
22623;DHT22;11478;51.094;7.030;2023-04-28T08:06:37;12.00;99.90
22623;DHT22;11478;51.094;7.030;2023-04-28T08:09:04;12.00;99.90
22623;DHT22;11478;51.094;7.030;2023-04-28T08:11:31;12.00;99.90
22623;DHT22;11478;51.094;7.030;2023-04-28T08:13:58;12.00;99.90
22623;DHT22;11478;51.094;7.030;2023-04-28T08:16:28;12.00;99.90
22623;DHT22;11478;51.094;7.030;2023-04-28T08:22:05;12.20;99.90
22623;DHT22;11478;51.094;7.030;2023-04-28T08:24:32;12.20;99.90
22623;DHT22;11478;51.094;7.030;2023-04-28T08:27:02;12.20;99.90
22623;DHT22;11478;51.094;7.030;2023-04-28T08:29:31;12.20;99.90
22623;DHT22;11478;51.094;7.030;2023-04-28T08:31:58;12.20;99.90
22623;DHT22;11478;51.094;7.030;2023-04-28T08:34:24;12.20;99.90
22623;DHT22;11478;51.094;7.030;2023-04-28T08:36:50;12.20;99.90
22623;DHT22;11478;51.094;7.030;2023-04-28T08:39:33;12.30;99.90
22623;DHT22;11478;51.094;7.030;2023-04-28T08:42:09;12.30;99.90
22623;DHT22;11478;51.094;7.030;2023-04-28T08:44:38;12.30;99.90
22623;DHT22;11478;51.094;7.030;2023-04-28T08:47:15;12.40;99.90
22623;DHT22;11478;51.094;7.030;2023-04-28T08:49:43;12.60;99.90
22623;DHT22;11478;51.094;7.030;2023-04-28T08:52:11;12.70;99.90
22623;DHT22;11478;51.094;7.030;2023-04-28T08:54:39;12.80;99.90
22623;DHT22;11478;51.094;7.030;2023-04-28T08:57:08;12.90;99.90
22623;DHT22;11478;51.094;7.030;2023-04-28T08:59:39;12.90;99.90
22623;DHT22;11478;51.094;7.030;2023-04-28T09:02:08;13.10;99.90
22623;DHT22;11478;51.094;7.030;2023-04-28T09:04:37;13.30;99.90
22623;DHT22;11478;51.094;7.030;2023-04-28T09:07:10;13.30;99.90
22623;DHT22;11478;51.094;7.030;2023-04-28T09:09:39;13.30;99.90
22623;DHT22;11478;51.094;7.030;2023-04-28T09:12:09;13.30;99.90
22623;DHT22;11478;51.094;7.030;2023-04-28T09:14:39;13.40;99.90
22623;DHT22;11478;51.094;7.030;2023-04-28T09:17:12;13.40;99.90
22623;DHT22;11478;51.094;7.030;2023-04-28T09:19:39;13.40;99.90
22623;DHT22;11478;51.094;7.030;2023-04-28T09:22:14;13.30;99.90
22623;DHT22;11478;51.094;7.030;2023-04-28T09:24:41;13.30;99.90
22623;DHT22;11478;51.094;7.030;2023-04-28T09:27:10;13.30;99.90
22623;DHT22;11478;51.094;7.030;2023-04-28T09:29:37;13.30;99.90
22623;DHT22;11478;51.094;7.030;2023-04-28T09:32:16;13.40;99.90
22623;DHT22;11478;51.094;7.030;2023-04-28T09:34:47;13.50;99.90
22623;DHT22;11478;51.094;7.030;2023-04-28T09:37:15;13.60;99.90
22623;DHT22;11478;51.094;7.030;2023-04-28T09:39:43;13.60;99.90
22623;DHT22;11478;51.094;7.030;2023-04-28T09:42:09;13.60;99.90
22623;DHT22;11478;51.094;7.030;2023-04-28T09:44:35;13.60;99.90
22623;DHT22;11478;51.094;7.030;2023-04-28T09:47:19;13.60;99.90
22623;DHT22;11478;51.094;7.030;2023-04-28T09:49:58;13.60;99.90
22623;DHT22;11478;51.094;7.030;2023-04-28T09:52:25;13.50;99.90
22623;DHT22;11478;51.094;7.030;2023-04-28T09:54:57;13.40;99.90
22623;DHT22;11478;51.094;7.030;2023-04-28T09:57:23;13.40;99.90
22623;DHT22;11478;51.094;7.030;2023-04-28T09:59:51;13.30;99.90
22623;DHT22;11478;51.094;7.030;2023-04-28T10:02:18;13.20;99.90
22623;DHT22;11478;51.094;7.030;2023-04-28T10:04:49;13.20;99.90
22623;DHT22;11478;51.094;7.030;2023-04-28T10:07:17;13.10;99.90
22623;DHT22;11478;51.094;7.030;2023-04-28T10:09:46;13.10;99.90
22623;DHT22;11478;51.094;7.030;2023-04-28T10:12:22;13.10;99.90
22623;DHT22;11478;51.094;7.030;2023-04-28T10:14:51;13.10;99.90
22623;DHT22;11478;51.094;7.030;2023-04-28T10:17:20;13.20;99.90
22623;DHT22;11478;51.094;7.030;2023-04-28T10:19:49;13.20;99.90
22623;DHT22;11478;51.094;7.030;2023-04-28T10:28:06;13.10;99.90
22623;DHT22;11478;51.094;7.030;2023-04-28T10:30:32;13.10;99.90
22623;DHT22;11478;51.094;7.030;2023-04-28T10:35:46;13.20;99.90
22623;DHT22;11478;51.094;7.030;2023-04-28T10:38:16;13.10;99.90
22623;DHT22;11478;51.094;7.030;2023-04-28T10:40:44;13.10;99.90
22623;DHT22;11478;51.094;7.030;2023-04-28T10:43:12;13.10;99.90
22623;DHT22;11478;51.094;7.030;2023-04-28T10:48:14;13.10;99.90
22623;DHT22;11478;51.094;7.030;2023-04-28T10:56:14;13.20;99.90
22623;DHT22;11478;51.094;7.030;2023-04-28T10:58:42;13.20;99.90
22623;DHT22;11478;51.094;7.030;2023-04-28T11:03:57;13.40;99.90
22623;DHT22;11478;51.094;7.030;2023-04-28T11:07:10;13.40;99.90
22623;DHT22;11478;51.094;7.030;2023-04-28T11:12:05;13.50;99.90
22623;DHT22;11478;51.094;7.030;2023-04-28T11:14:36;13.60;99.90
22623;DHT22;11478;51.094;7.030;2023-04-28T11:17:04;13.70;99.90
22623;DHT22;11478;51.094;7.030;2023-04-28T11:19:33;13.80;99.90
22623;DHT22;11478;51.094;7.030;2023-04-28T11:22:18;13.80;99.90
22623;DHT22;11478;51.094;7.030;2023-04-28T11:24:55;13.90;99.90
22623;DHT22;11478;51.094;7.030;2023-04-28T11:27:29;14.00;99.90
22623;DHT22;11478;51.094;7.030;2023-04-28T11:29:55;14.20;99.90
22623;DHT22;11478;51.094;7.030;2023-04-28T11:32:34;14.30;99.90
22623;DHT22;11478;51.094;7.030;2023-04-28T11:35:00;14.40;99.90
22623;DHT22;11478;51.094;7.030;2023-04-28T11:37:27;14.50;99.90
22623;DHT22;11478;51.094;7.030;2023-04-28T11:39:53;14.70;99.90
22623;DHT22;11478;51.094;7.030;2023-04-28T11:42:21;14.80;99.90
22623;DHT22;11478;51.094;7.030;2023-04-28T11:44:51;15.00;99.90
22623;DHT22;11478;51.094;7.030;2023-04-28T11:47:30;15.20;99.90
22623;DHT22;11478;51.094;7.030;2023-04-28T11:49:57;15.40;99.90
22623;DHT22;11478;51.094;7.030;2023-04-28T11:52:23;15.50;99.90
22623;DHT22;11478;51.094;7.030;2023-04-28T11:54:57;15.50;99.90
22623;DHT22;11478;51.094;7.030;2023-04-28T11:57:26;15.60;99.90
22623;DHT22;11478;51.094;7.030;2023-04-28T12:00:11;15.60;99.90
22623;DHT22;11478;51.094;7.030;2023-04-28T12:02:38;15.60;99.90
22623;DHT22;11478;51.094;7.030;2023-04-28T12:05:06;15.70;99.90
22623;DHT22;11478;51.094;7.030;2023-04-28T12:07:43;15.90;99.90
22623;DHT22;11478;51.094;7.030;2023-04-28T12:10:14;16.20;99.90
22623;DHT22;11478;51.094;7.030;2023-04-28T12:12:42;16.30;99.90
22623;DHT22;11478;51.094;7.030;2023-04-28T12:15:08;16.30;99.90
22623;DHT22;11478;51.094;7.030;2023-04-28T12:17:36;16.30;99.90
22623;DHT22;11478;51.094;7.030;2023-04-28T12:20:05;16.40;99.90
22623;DHT22;11478;51.094;7.030;2023-04-28T12:22:46;16.30;99.90
22623;DHT22;11478;51.094;7.030;2023-04-28T12:25:14;16.40;99.90
22623;DHT22;11478;51.094;7.030;2023-04-28T12:28:01;16.60;99.90
22623;DHT22;11478;51.094;7.030;2023-04-28T12:30:28;16.60;99.90
22623;DHT22;11478;51.094;7.030;2023-04-28T12:32:55;16.80;99.90
22623;DHT22;11478;51.094;7.030;2023-04-28T12:35:23;17.00;99.90
22623;DHT22;11478;51.094;7.030;2023-04-28T12:37:56;17.50;99.90
22623;DHT22;11478;51.094;7.030;2023-04-28T12:40:23;17.70;99.90
22623;DHT22;11478;51.094;7.030;2023-04-28T12:42:49;17.70;99.90
22623;DHT22;11478;51.094;7.030;2023-04-28T12:45:16;17.60;99.90
22623;DHT22;11478;51.094;7.030;2023-04-28T12:47:41;17.50;99.90
22623;DHT22;11478;51.094;7.030;2023-04-28T12:50:16;17.50;99.90
22623;DHT22;11478;51.094;7.030;2023-04-28T12:52:41;17.60;99.90
22623;DHT22;11478;51.094;7.030;2023-04-28T12:55:14;17.50;99.90
22623;DHT22;11478;51.094;7.030;2023-04-28T12:57:40;17.40;99.90
22623;DHT22;11478;51.094;7.030;2023-04-28T13:00:07;17.50;99.90
22623;DHT22;11478;51.094;7.030;2023-04-28T13:02:33;17.60;99.90
22623;DHT22;11478;51.094;7.030;2023-04-28T13:04:59;17.80;99.90
22623;DHT22;11478;51.094;7.030;2023-04-28T13:07:36;18.00;99.90
22623;DHT22;11478;51.094;7.030;2023-04-28T13:10:41;18.20;99.90
22623;DHT22;11478;51.094;7.030;2023-04-28T13:13:10;18.40;99.90
22623;DHT22;11478;51.094;7.030;2023-04-28T13:15:38;18.40;99.90
22623;DHT22;11478;51.094;7.030;2023-04-28T13:18:04;18.20;99.90
22623;DHT22;11478;51.094;7.030;2023-04-28T13:20:30;18.10;99.90
22623;DHT22;11478;51.094;7.030;2023-04-28T13:22:56;17.80;99.90
22623;DHT22;11478;51.094;7.030;2023-04-28T13:25:25;17.70;99.90
22623;DHT22;11478;51.094;7.030;2023-04-28T13:27:51;17.60;99.90
22623;DHT22;11478;51.094;7.030;2023-04-28T13:30:17;17.40;99.90
22623;DHT22;11478;51.094;7.030;2023-04-28T13:32:43;17.40;99.90
22623;DHT22;11478;51.094;7.030;2023-04-28T13:35:10;17.50;99.90
22623;DHT22;11478;51.094;7.030;2023-04-28T13:37:36;17.60;99.90
22623;DHT22;11478;51.094;7.030;2023-04-28T13:40:07;17.90;99.90
22623;DHT22;11478;51.094;7.030;2023-04-28T13:42:33;18.20;99.90
22623;DHT22;11478;51.094;7.030;2023-04-28T13:44:59;18.30;99.90
22623;DHT22;11478;51.094;7.030;2023-04-28T13:47:25;18.40;99.90
22623;DHT22;11478;51.094;7.030;2023-04-28T13:49:52;18.40;99.90
22623;DHT22;11478;51.094;7.030;2023-04-28T13:52:18;18.30;99.90
22623;DHT22;11478;51.094;7.030;2023-04-28T13:54:47;18.60;99.90
22623;DHT22;11478;51.094;7.030;2023-04-28T13:57:13;18.50;99.90
22623;DHT22;11478;51.094;7.030;2023-04-28T13:59:40;18.30;99.90
22623;DHT22;11478;51.094;7.030;2023-04-28T14:02:05;18.20;99.90
22623;DHT22;11478;51.094;7.030;2023-04-28T14:04:37;18.00;99.90
22623;DHT22;11478;51.094;7.030;2023-04-28T14:07:03;18.10;99.90
22623;DHT22;11478;51.094;7.030;2023-04-28T14:09:31;18.20;99.90
22623;DHT22;11478;51.094;7.030;2023-04-28T14:11:57;18.30;99.90
22623;DHT22;11478;51.094;7.030;2023-04-28T14:14:23;18.40;99.90
22623;DHT22;11478;51.094;7.030;2023-04-28T14:16:49;18.60;99.90
22623;DHT22;11478;51.094;7.030;2023-04-28T14:19:17;19.00;99.90
22623;DHT22;11478;51.094;7.030;2023-04-28T14:21:44;19.00;99.90
22623;DHT22;11478;51.094;7.030;2023-04-28T14:24:13;18.90;99.90
22623;DHT22;11478;51.094;7.030;2023-04-28T14:26:39;18.80;99.90
22623;DHT22;11478;51.094;7.030;2023-04-28T14:29:06;18.70;99.90
22623;DHT22;11478;51.094;7.030;2023-04-28T14:31:32;18.80;99.90
22623;DHT22;11478;51.094;7.030;2023-04-28T14:33:58;19.10;99.90
22623;DHT22;11478;51.094;7.030;2023-04-28T14:36:24;19.40;99.90
22623;DHT22;11478;51.094;7.030;2023-04-28T14:38:52;19.50;99.90
22623;DHT22;11478;51.094;7.030;2023-04-28T14:41:18;19.40;99.90
22623;DHT22;11478;51.094;7.030;2023-04-28T14:43:53;19.20;99.90
22623;DHT22;11478;51.094;7.030;2023-04-28T14:46:19;19.20;99.90
22623;DHT22;11478;51.094;7.030;2023-04-28T14:48:48;19.30;99.90
22623;DHT22;11478;51.094;7.030;2023-04-28T14:51:14;19.40;99.90
22623;DHT22;11478;51.094;7.030;2023-04-28T14:53:40;19.40;99.90
22623;DHT22;11478;51.094;7.030;2023-04-28T14:56:12;19.50;99.90
22623;DHT22;11478;51.094;7.030;2023-04-28T14:58:45;19.40;99.90
22623;DHT22;11478;51.094;7.030;2023-04-28T15:01:15;19.40;99.90
22623;DHT22;11478;51.094;7.030;2023-04-28T15:03:42;19.40;99.90
22623;DHT22;11478;51.094;7.030;2023-04-28T15:06:09;19.40;99.90
22623;DHT22;11478;51.094;7.030;2023-04-28T15:08:36;19.50;99.90
22623;DHT22;11478;51.094;7.030;2023-04-28T15:11:02;19.70;99.90
22623;DHT22;11478;51.094;7.030;2023-04-28T15:13:28;19.80;99.90
22623;DHT22;11478;51.094;7.030;2023-04-28T15:16:04;19.80;99.90
22623;DHT22;11478;51.094;7.030;2023-04-28T15:18:30;19.90;99.90
22623;DHT22;11478;51.094;7.030;2023-04-28T15:20:59;19.80;99.90
22623;DHT22;11478;51.094;7.030;2023-04-28T15:23:25;19.70;99.90
22623;DHT22;11478;51.094;7.030;2023-04-28T15:25:51;19.50;99.90
22623;DHT22;11478;51.094;7.030;2023-04-28T15:28:18;19.30;99.90
22623;DHT22;11478;51.094;7.030;2023-04-28T15:30:49;19.20;99.90
22623;DHT22;11478;51.094;7.030;2023-04-28T15:33:18;19.20;99.90
22623;DHT22;11478;51.094;7.030;2023-04-28T15:35:44;19.00;99.90
22623;DHT22;11478;51.094;7.030;2023-04-28T15:38:11;18.80;99.90
22623;DHT22;11478;51.094;7.030;2023-04-28T15:40:39;18.70;99.90
22623;DHT22;11478;51.094;7.030;2023-04-28T15:43:06;18.60;99.90
22623;DHT22;11478;51.094;7.030;2023-04-28T15:45:33;18.40;99.90
22623;DHT22;11478;51.094;7.030;2023-04-28T15:47:59;18.30;99.90
22623;DHT22;11478;51.094;7.030;2023-04-28T15:50:26;18.30;99.90
22623;DHT22;11478;51.094;7.030;2023-04-28T15:52:54;18.30;99.90
22623;DHT22;11478;51.094;7.030;2023-04-28T15:55:21;18.30;99.90
22623;DHT22;11478;51.094;7.030;2023-04-28T15:57:51;18.20;99.90
22623;DHT22;11478;51.094;7.030;2023-04-28T16:00:26;18.10;99.90
22623;DHT22;11478;51.094;7.030;2023-04-28T16:03:05;18.00;99.90
22623;DHT22;11478;51.094;7.030;2023-04-28T16:05:33;17.90;99.90
22623;DHT22;11478;51.094;7.030;2023-04-28T16:08:03;18.00;99.90
22623;DHT22;11478;51.094;7.030;2023-04-28T16:10:32;18.20;99.90
22623;DHT22;11478;51.094;7.030;2023-04-28T16:12:59;18.30;99.90
22623;DHT22;11478;51.094;7.030;2023-04-28T16:15:25;18.30;99.90
22623;DHT22;11478;51.094;7.030;2023-04-28T16:17:55;18.40;99.90
22623;DHT22;11478;51.094;7.030;2023-04-28T16:20:23;18.50;99.90
22623;DHT22;11478;51.094;7.030;2023-04-28T16:22:55;18.60;99.90
22623;DHT22;11478;51.094;7.030;2023-04-28T16:25:25;18.50;99.90